Time;durP1;ratioP1;P1;durP2;ratioP2;P2;SDS_P1;SDS_P2;PMS_P1;PMS_P2;Temp;Humidity;BMP_temperature;BMP_pressure;BME280_temperature;BME280_humidity;BME280_pressure;Samples;Min_cycle;Max_cycle;Signal;HPM_P1;HPM_P2
2023/01/05 00:01:05;;;;;;;19.63;4.60;;;11.20;99.90;;;;;;4836140;29;20022;-77
2023/01/05 00:03:31;;;;;;;11.02;4.75;;;;;;;;;;4852030;29;20024;-77
2023/01/05 00:06:02;;;;;;;13.48;4.45;;;11.10;99.90;;;;;;4866868;29;20041;-77
2023/01/05 00:08:28;;;;;;;11.02;4.07;;;;;;;;;;4836239;29;20034;-77
2023/01/05 00:24:42;;;;;;;15.20;4.95;;;;;;;;;;4827719;29;20046;-77
2023/01/05 00:27:08;;;;;;;31.65;7.47;;;;;;;;;;4813318;29;20019;-77
2023/01/05 00:29:35;;;;;;;19.77;8.05;;;;;;;;;;4812436;29;20034;-77
2023/01/05 00:32:01;;;;;;;11.77;5.20;;;11.00;99.90;;;;;;4797321;29;20046;-79
2023/01/05 00:34:28;;;;;;;13.90;6.25;;;10.90;99.90;;;;;;4798082;29;20019;-77
2023/01/05 00:36:54;;;;;;;15.43;4.43;;;;;;;;;;4798171;29;20083;-78
2023/01/05 00:39:20;;;;;;;15.95;4.30;;;;;;;;;;4813493;29;20023;-77
2023/01/05 00:41:46;;;;;;;13.68;3.95;;;10.80;99.90;;;;;;4814316;29;20042;-78
2023/01/05 00:44:13;;;;;;;18.65;5.47;;;;;;;;;;4798507;29;20037;-77
2023/01/05 00:46:39;;;;;;;13.98;5.38;;;;;;;;;;4829120;29;20038;-77
2023/01/05 00:49:05;;;;;;;16.17;5.07;;;;;;;;;;4813198;29;20027;-77
2023/01/05 00:51:32;;;;;;;14.35;6.85;;;;;;;;;;4812516;29;20039;-77
2023/01/05 00:53:58;;;;;;;23.20;6.68;;;;;;;;;;4812291;29;20015;-77
2023/01/05 01:02:02;;;;;;;19.70;6.45;;;;;;;;;;4620641;27;20070;-78
2023/01/05 01:04:30;;;;;;;13.43;5.82;;;10.20;99.90;;;;;;4869402;29;20034;-78
2023/01/05 01:06:56;;;;;;;12.23;5.07;;;;;;;;;;4854015;29;20017;-78
2023/01/05 01:09:22;;;;;;;19.65;5.03;;;;;;;;;;4865275;29;20070;-78
2023/01/05 01:20:04;;;;;;;23.23;4.68;;;10.10;99.90;;;;;;4671472;27;20057;-77
2023/01/05 01:22:30;;;;;;;15.57;6.40;;;;;;;;;;4814277;29;20030;-77
2023/01/05 01:24:56;;;;;;;19.52;5.22;;;;;;;;;;4829464;29;20038;-77
2023/01/05 01:27:23;;;;;;;13.82;4.85;;;;;;;;;;4847607;29;20026;-78
2023/01/05 01:29:49;;;;;;;9.68;5.38;;;;;;;;;;4832975;29;20038;-77
2023/01/05 01:32:15;;;;;;;13.48;5.25;;;;;;;;;;4832728;29;20015;-77
2023/01/05 01:34:41;;;;;;;21.00;5.95;;;;;;;;;;4821009;29;20015;-77
2023/01/05 01:37:08;;;;;;;17.52;5.55;;;;;;;;;;4835684;29;20078;-77
2023/01/05 01:39:42;;;;;;;18.25;6.35;;;;;;;;;;4836096;29;20030;-78
2023/01/05 01:42:14;;;;;;;8.35;4.85;;;9.90;99.90;;;;;;4821413;29;20031;-78
2023/01/05 01:44:54;;;;;;;17.75;5.82;;;10.10;99.90;;;;;;4820957;29;20043;-77
2023/01/05 01:47:23;;;;;;;11.43;4.90;;;;;;;;;;4821494;29;20045;-77
2023/01/05 01:49:51;;;;;;;20.88;6.40;;;10.20;99.90;;;;;;4811389;29;20035;-77
2023/01/05 01:52:19;;;;;;;21.85;6.38;;;10.20;99.90;;;;;;4816614;29;20021;-77
2023/01/05 01:54:48;;;;;;;28.70;8.13;;;10.20;99.90;;;;;;4802238;29;20046;-77
2023/01/05 01:57:14;;;;;;;22.77;8.65;;;;;;;;;;4817569;29;20019;-77
2023/01/05 01:59:41;;;;;;;37.25;6.88;;;;;;;;;;4803169;29;20025;-77
2023/01/05 02:02:08;;;;;;;13.43;4.32;;;10.30;99.90;;;;;;4815220;29;20107;-77
2023/01/05 02:04:36;;;;;;;15.10;6.38;;;10.40;99.90;;;;;;4814583;29;20039;-77
2023/01/05 02:07:03;;;;;;;7.07;3.47;;;10.40;99.90;;;;;;4829750;29;20023;-77
2023/01/05 02:09:30;;;;;;;14.52;6.40;;;10.50;99.90;;;;;;4831070;29;20035;-78
2023/01/05 02:12:22;;;;;;;18.85;6.65;;;10.50;99.90;;;;;;4816331;29;20050;-77
2023/01/05 02:14:59;;;;;;;12.98;4.47;;;10.50;99.90;;;;;;4815640;29;20096;-78
2023/01/05 02:18:03;;;;;;;30.40;7.90;;;10.50;99.90;;;;;;4814983;29;20031;-77
2023/01/05 02:20:46;;;;;;;10.02;4.85;;;10.60;99.90;;;;;;4814691;29;20029;-78
2023/01/05 02:23:49;;;;;;;21.63;6.05;;;10.60;99.90;;;;;;4799543;29;20027;-77
2023/01/05 02:26:40;;;;;;;9.70;4.93;;;10.60;99.90;;;;;;4800615;29;20056;-77
2023/01/05 02:29:35;;;;;;;19.10;5.90;;;10.60;99.90;;;;;;4817086;29;20023;-79
2023/01/05 02:32:27;;;;;;;13.15;4.68;;;10.60;99.90;;;;;;4793024;29;20046;-77
2023/01/05 02:35:40;;;;;;;15.02;6.13;;;10.60;99.90;;;;;;4814571;29;20054;-78
2023/01/05 02:38:36;;;;;;;22.10;6.68;;;10.60;99.90;;;;;;4812538;29;20034;-77
2023/01/05 02:41:14;;;;;;;12.27;5.18;;;10.70;99.90;;;;;;4827051;29;20090;-79
2023/01/05 02:43:44;;;;;;;20.15;5.95;;;10.70;99.90;;;;;;4831794;29;20066;-78
2023/01/05 02:46:10;;;;;;;19.33;5.93;;;;;;;;;;4815971;29;20034;-79
2023/01/05 02:51:34;;;;;;;12.98;4.30;;;10.70;99.90;;;;;;5023740;24;20125;-78
2023/01/05 02:54:08;;;;;;;27.25;6.57;;;10.70;99.90;;;;;;4853422;29;20030;-78
2023/01/05 02:56:53;;;;;;;15.60;5.07;;;10.70;99.90;;;;;;4871901;29;20032;-80
2023/01/05 02:59:27;;;;;;;23.98;7.05;;;10.70;99.90;;;;;;4870903;29;20017;-78
2023/01/05 03:02:09;;;;;;;26.10;7.47;;;10.70;99.90;;;;;;4871094;29;20088;-78
2023/01/05 03:04:52;;;;;;;13.45;3.65;;;10.70;99.90;;;;;;4854875;29;20041;-78
2023/01/05 03:07:27;;;;;;;16.40;5.38;;;10.70;99.90;;;;;;4854371;29;20010;-78
2023/01/05 03:09:55;;;;;;;11.27;3.97;;;;;;;;;;4843147;29;20119;-78
2023/01/05 03:15:27;;;;;;;14.82;6.43;;;10.70;99.90;;;;;;4832422;29;20022;-77
2023/01/05 03:18:00;;;;;;;10.35;5.20;;;10.70;99.90;;;;;;4832583;29;20038;-78
2023/01/05 03:20:31;;;;;;;10.75;6.20;;;10.70;99.90;;;;;;4832758;29;20026;-78
2023/01/05 03:37:30;;;;;;;12.30;4.70;;;10.60;99.90;;;;;;4832920;29;20067;-78
2023/01/05 03:39:59;;;;;;;24.30;5.15;;;10.60;99.90;;;;;;4818263;29;20035;-78
2023/01/05 03:42:29;;;;;;;14.27;4.57;;;10.50;99.90;;;;;;4833985;29;20017;-79
2023/01/05 03:44:55;;;;;;;12.90;3.75;;;;;;;;;;4833865;29;20054;-79
2023/01/05 03:47:23;;;;;;;16.27;4.63;;;10.50;99.90;;;;;;4832660;29;20045;-78
2023/01/05 03:49:50;;;;;;;21.40;7.00;;;10.50;99.90;;;;;;4817640;29;20048;-78
2023/01/05 03:52:17;;;;;;;16.15;5.22;;;;;;;;;;4833703;29;20067;-77
2023/01/05 03:54:44;;;;;;;15.10;5.63;;;;;;;;;;4832083;29;20069;-78
2023/01/05 03:57:10;;;;;;;11.90;3.60;;;;;;;;;;5134983;24;20064;-77
2023/01/05 03:59:37;;;;;;;16.13;6.20;;;;;;;;;;4870248;29;20026;-77
2023/01/05 04:02:04;;;;;;;14.98;4.80;;;;;;;;;;4870541;29;20021;-78
2023/01/05 04:04:31;;;;;;;11.35;4.55;;;;;;;;;;4855120;29;20061;-78
2023/01/05 04:06:59;;;;;;;15.10;5.38;;;;;;;;;;4855893;29;20025;-78
2023/01/05 04:09:28;;;;;;;20.05;6.15;;;;;;;;;;4851628;29;20014;-78
2023/01/05 04:11:55;;;;;;;15.95;6.85;;;;;;;;;;4851776;29;20093;-77
2023/01/05 04:14:21;;;;;;;10.18;4.85;;;;;;;;;;4852424;29;20017;-78
2023/01/05 04:16:48;;;;;;;14.52;5.70;;;;;;;;;;4851014;29;20017;-78
2023/01/05 04:28:50;;;;;;;10.02;4.25;;;;;;;;;;4901047;24;20025;-77
2023/01/05 04:31:19;;;;;;;14.27;5.20;;;;;;;;;;4885246;29;20014;-77
2023/01/05 04:33:45;;;;;;;11.70;4.97;;;;;;;;;;4853971;29;20034;-77
2023/01/05 04:36:18;;;;;;;14.50;5.40;;;10.50;99.90;;;;;;4850181;29;20040;-78
2023/01/05 04:38:44;;;;;;;16.75;6.22;;;;;;;;;;4851598;29;20034;-77
2023/01/05 04:41:10;;;;;;;17.55;6.53;;;;;;;;;;4866609;29;20073;-77
2023/01/05 04:43:39;;;;;;;15.52;6.97;;;;;;;;;;4851447;29;20026;-77
2023/01/05 04:48:55;;;;;;;15.27;5.30;;;;;;;;;;5005782;24;20045;-77
2023/01/05 04:51:23;;;;;;;17.20;6.60;;;10.50;99.90;;;;;;4869498;29;20041;-78
2023/01/05 04:53:50;;;;;;;27.50;7.50;;;;;;;;;;4978666;24;20038;-78
2023/01/05 04:56:20;;;;;;;;;;;10.50;99.90;;;;;;4870282;29;20066;-78
2023/01/05 04:58:48;;;;;;;16.13;5.47;;;;;;;;;;4864863;29;19896;-78
2023/01/05 05:01:14;;;;;;;14.02;5.70;;;;;;;;;;4866874;29;20040;-78
2023/01/05 05:03:42;;;;;;;23.55;10.00;;;;;;;;;;4869312;29;20034;-78
2023/01/05 05:06:13;;;;;;;16.25;7.03;;;;;;;;;;5144436;24;20061;-77
2023/01/05 05:08:39;;;;;;;15.40;6.72;;;;;;;;;;4860923;29;20045;-78
2023/01/05 05:11:08;;;;;;;18.75;4.82;;;;;;;;;;4820852;29;20086;-77
2023/01/05 05:13:37;;;;;;;12.93;6.68;;;;;;;;;;4819456;29;20034;-77
2023/01/05 05:16:04;;;;;;;13.68;5.25;;;10.60;99.90;;;;;;4820454;29;20057;-78
2023/01/05 05:18:32;;;;;;;17.35;5.03;;;;;;;;;;4820170;29;20015;-78
2023/01/05 05:20:59;;;;;;;19.20;5.30;;;;;;;;;;4835723;29;20102;-79
2023/01/05 05:23:30;;;;;;;24.23;6.18;;;;;;;;;;4819430;29;20042;-79
2023/01/05 05:25:58;;;;;;;15.75;6.03;;;;;;;;;;4833725;29;20042;-78
2023/01/05 05:28:27;;;;;;;18.95;5.63;;;;;;;;;;4842789;29;20029;-78
2023/01/05 05:30:57;;;;;;;17.90;4.93;;;10.60;99.90;;;;;;4840529;29;20041;-78
2023/01/05 05:33:24;;;;;;;13.88;7.28;;;10.60;99.90;;;;;;4835188;29;20091;-78
2023/01/05 05:35:51;;;;;;;31.05;7.28;;;10.60;99.90;;;;;;4850059;29;20026;-77
2023/01/05 05:38:17;;;;;;;13.95;4.40;;;;;;;;;;4834082;29;20042;-77
2023/01/05 05:40:43;;;;;;;13.77;5.38;;;10.60;99.90;;;;;;4847835;29;20067;-77
2023/01/05 05:43:10;;;;;;;25.38;8.13;;;;;;;;;;4823689;29;20644;-77
2023/01/05 05:45:36;;;;;;;14.90;4.38;;;;;;;;;;4834673;29;20042;-77
2023/01/05 05:48:05;;;;;;;27.42;8.30;;;;;;;;;;4826814;29;20062;-78
2023/01/05 05:50:32;;;;;;;19.30;6.60;;;10.50;99.90;;;;;;4826752;29;20035;-77
2023/01/05 05:53:10;;;;;;;15.77;4.63;;;10.50;99.90;;;;;;4853267;29;20094;-77
2023/01/05 05:55:39;;;;;;;29.58;6.65;;;10.40;99.90;;;;;;4864188;29;20053;-77
2023/01/05 05:58:08;;;;;;;22.35;7.20;;;10.40;99.90;;;;;;4833334;29;20067;-77
2023/01/05 06:00:37;;;;;;;12.48;6.38;;;;;;;;;;4846357;29;20046;-78
2023/01/05 06:03:06;;;;;;;27.20;6.83;;;;;;;;;;4828271;29;20105;-77
2023/01/05 06:05:34;;;;;;;17.02;6.97;;;;;;;;;;4846223;29;20054;-77
2023/01/05 06:08:01;;;;;;;11.85;6.03;;;;;;;;;;4844781;29;20030;-77
2023/01/05 06:10:27;;;;;;;23.92;5.95;;;;;;;;;;4822448;29;20031;-77
2023/01/05 06:12:54;;;;;;;12.02;5.05;;;;;;;;;;4816586;29;20518;-77
2023/01/05 06:15:22;;;;;;;14.90;5.45;;;10.30;99.90;;;;;;4847876;29;20056;-77
2023/01/05 06:17:48;;;;;;;18.00;6.53;;;;;;;;;;4846492;29;20045;-77
2023/01/05 06:20:16;;;;;;;31.52;10.27;;;10.40;99.90;;;;;;4861596;29;20036;-82
2023/01/05 06:22:42;;;;;;;18.40;6.72;;;10.70;99.90;;;;;;4850632;29;20018;-78
2023/01/05 06:25:12;;;;;;;15.43;5.20;;;10.30;99.90;;;;;;4844177;29;20042;-77
2023/01/05 06:27:38;;;;;;;16.83;4.13;;;;;;;;;;4851962;29;20025;-78
2023/01/05 06:30:07;;;;;;;20.85;4.65;;;;;;;;;;4820686;29;20022;-79
2023/01/05 06:32:34;;;;;;;16.88;5.55;;;;;;;;;;4831132;29;20041;-77
2023/01/05 06:35:00;;;;;;;18.55;6.65;;;10.40;99.90;;;;;;4841575;29;20075;-77
2023/01/05 06:37:27;;;;;;;31.02;7.82;;;;;;;;;;4838966;29;20026;-78
2023/01/05 06:39:56;;;;;;;17.98;6.88;;;;;;;;;;4833409;29;20038;-79
2023/01/05 06:42:23;;;;;;;19.20;6.30;;;;;;;;;;4831902;29;20038;-78
2023/01/05 06:44:49;;;;;;;22.48;6.90;;;;;;;;;;4834286;29;20019;-78
2023/01/05 06:47:16;;;;;;;29.23;7.25;;;;;;;;;;4856139;29;20033;-78
2023/01/05 06:50:01;;;;;;;23.58;5.72;;;10.50;99.90;;;;;;4837567;29;20035;-78
2023/01/05 06:52:35;;;;;;;17.58;7.65;;;;;;;;;;4833246;29;20050;-78
2023/01/05 06:55:08;;;;;;;16.25;6.88;;;10.60;99.90;;;;;;4848727;29;20035;-78
2023/01/05 06:57:35;;;;;;;19.73;6.13;;;;;;;;;;4851665;29;20038;-78
2023/01/05 07:00:07;;;;;;;13.70;6.13;;;10.60;99.90;;;;;;4853183;29;20018;-78
2023/01/05 07:02:33;;;;;;;20.55;8.00;;;;;;;;;;4834953;29;20022;-78
2023/01/05 07:05:00;;;;;;;30.90;7.15;;;;;;;;;;4833203;29;20042;-78
2023/01/05 07:07:26;;;;;;;25.05;5.88;;;;;;;;;;4847595;29;20090;-78
2023/01/05 07:10:00;;;;;;;20.67;7.53;;;;;;;;;;4838384;29;20034;-78
2023/01/05 07:12:26;;;;;;;27.00;7.85;;;;;;;;;;4847819;29;20033;-78
2023/01/05 07:14:53;;;;;;;22.08;9.10;;;10.60;99.90;;;;;;4831682;29;20046;-78
2023/01/05 07:17:19;;;;;;;17.08;7.03;;;;;;;;;;4873693;29;20029;-78
2023/01/05 07:19:45;;;;;;;16.10;6.53;;;10.60;99.90;;;;;;4852408;29;20040;-78
2023/01/05 07:22:12;;;;;;;18.00;6.60;;;;;;;;;;4867065;29;20034;-78
2023/01/05 07:24:38;;;;;;;21.02;7.85;;;;;;;;;;4863316;29;20045;-78
2023/01/05 07:27:04;;;;;;;23.20;7.90;;;;;;;;;;4867997;29;20059;-78
2023/01/05 07:29:30;;;;;;;28.70;6.90;;;;;;;;;;4856688;29;20021;-78
2023/01/05 07:31:57;;;;;;;22.48;8.50;;;;;;;;;;4877991;29;20025;-78
2023/01/05 07:34:23;;;;;;;14.00;7.90;;;;;;;;;;4853054;29;20021;-78
2023/01/05 07:36:50;;;;;;;22.92;11.15;;;;;;;;;;4841569;29;20044;-78
2023/01/05 07:39:16;;;;;;;24.25;7.80;;;;;;;;;;4855386;29;20013;-78
2023/01/05 07:41:43;;;;;;;25.13;8.82;;;10.40;99.90;;;;;;4852942;29;20078;-78
2023/01/05 07:44:10;;;;;;;31.67;8.85;;;;;;;;;;4857342;29;20006;-78
2023/01/05 07:46:39;;;;;;;22.40;7.28;;;;;;;;;;4840129;29;20044;-78
2023/01/05 07:49:06;;;;;;;30.77;9.07;;;;;;;;;;4853137;29;20044;-78
2023/01/05 07:51:32;;;;;;;28.42;10.05;;;;;;;;;;4853198;29;20036;-78
2023/01/05 07:54:00;;;;;;;25.85;8.55;;;;;;;;;;4855447;29;20018;-78
2023/01/05 07:56:29;;;;;;;15.18;8.07;;;10.40;99.90;;;;;;4863181;29;20021;-78
2023/01/05 07:58:56;;;;;;;18.75;7.75;;;;;;;;;;4859581;29;20060;-78
2023/01/05 08:01:22;;;;;;;27.98;8.00;;;;;;;;;;4893347;29;20040;-78
2023/01/05 08:03:51;;;;;;;17.08;10.15;;;;;;;;;;4872078;29;20063;-78
2023/01/05 08:06:20;;;;;;;15.35;7.45;;;10.50;99.90;;;;;;4889283;29;20071;-79
2023/01/05 08:08:47;;;;;;;28.00;10.82;;;;;;;;;;4868743;29;20028;-78
2023/01/05 08:11:17;;;;;;;34.42;9.35;;;10.50;99.90;;;;;;4868881;29;20032;-78
2023/01/05 08:13:59;;;;;;;18.80;8.27;;;10.50;99.90;;;;;;4848550;29;20034;-78
2023/01/05 08:16:26;;;;;;;25.83;8.57;;;10.50;99.90;;;;;;4894467;29;20013;-78
2023/01/05 08:18:53;;;;;;;22.35;6.35;;;10.60;99.90;;;;;;4851872;29;20059;-78
2023/01/05 08:21:22;;;;;;;20.92;8.10;;;10.60;99.90;;;;;;4865727;29;20021;-78
2023/01/05 08:23:56;;;;;;;44.72;7.65;;;;;;;;;;4852717;29;20041;-78
2023/01/05 08:26:23;;;;;;;24.13;7.95;;;;;;;;;;4834667;29;20053;-78
2023/01/05 08:28:51;;;;;;;16.75;6.35;;;10.60;99.90;;;;;;4858638;29;20030;-78
2023/01/05 08:31:23;;;;;;;21.58;10.25;;;10.60;99.90;;;;;;4852694;29;20092;-78
2023/01/05 08:34:01;;;;;;;21.42;7.00;;;10.70;99.90;;;;;;4881123;29;20061;-78
2023/01/05 08:36:33;;;;;;;23.20;7.47;;;10.70;99.90;;;;;;4850104;29;20174;-78
2023/01/05 08:39:03;;;;;;;16.25;8.65;;;;;;;;;;4847622;29;20030;-78
2023/01/05 08:41:37;;;;;;;32.95;8.88;;;10.80;99.90;;;;;;4850938;29;20063;-78
2023/01/05 08:44:09;;;;;;;18.30;6.68;;;10.90;99.90;;;;;;4851355;29;20041;-78
2023/01/05 08:46:35;;;;;;;29.58;8.95;;;;;;;;;;4865335;29;20038;-78
2023/01/05 08:49:06;;;;;;;27.75;8.45;;;10.90;99.90;;;;;;4852680;29;20028;-78
2023/01/05 08:51:32;;;;;;;22.05;7.63;;;;;;;;;;4852572;29;20061;-78
2023/01/05 08:53:59;;;;;;;20.77;8.57;;;;;;;;;;4860436;29;20030;-77
2023/01/05 08:56:25;;;;;;;25.95;7.68;;;10.90;99.90;;;;;;4874383;29;20029;-77
2023/01/05 08:58:54;;;;;;;13.00;7.78;;;10.80;99.90;;;;;;4848780;29;20037;-78
2023/01/05 09:01:21;;;;;;;20.05;7.25;;;;;;;;;;4857003;29;20029;-77
2023/01/05 09:03:47;;;;;;;27.05;7.88;;;;;;;;;;4871836;29;20033;-78
2023/01/05 09:06:13;;;;;;;19.13;6.78;;;11.00;99.90;;;;;;4861742;29;20115;-78
2023/01/05 09:08:41;;;;;;;23.15;9.25;;;11.80;99.90;;;;;;4878992;29;20081;-78
2023/01/05 09:11:21;;;;;;;25.20;6.30;;;11.00;99.90;;;;;;4833505;29;20006;-78
2023/01/05 09:13:53;;;;;;;25.50;7.07;;;11.00;99.90;;;;;;4865560;29;20109;-78
2023/01/05 09:16:22;;;;;;;16.58;6.32;;;11.00;99.90;;;;;;4858441;29;20053;-78
2023/01/05 09:18:49;;;;;;;12.07;8.00;;;11.10;99.90;;;;;;4854622;29;20051;-77
2023/01/05 09:21:15;;;;;;;12.02;6.82;;;11.20;99.90;;;;;;4872551;29;20046;-78
2023/01/05 09:23:41;;;;;;;27.17;8.75;;;11.30;99.90;;;;;;4837994;29;20025;-78
2023/01/05 09:26:09;;;;;;;27.05;8.57;;;11.60;99.90;;;;;;4865368;29;20038;-78
2023/01/05 09:28:35;;;;;;;23.23;7.75;;;11.70;99.90;;;;;;4851222;29;20030;-77
2023/01/05 09:31:10;;;;;;;20.38;8.85;;;11.50;99.90;;;;;;4838653;29;20026;-77
2023/01/05 09:33:37;;;;;;;24.02;8.40;;;11.50;99.90;;;;;;4850118;29;20025;-78
2023/01/05 09:36:03;;;;;;;30.77;7.65;;;11.40;99.90;;;;;;4841722;29;20053;-77
2023/01/05 09:38:29;;;;;;;39.92;23.92;;;11.40;99.90;;;;;;4872873;29;20045;-77
2023/01/05 09:41:02;;;;;;;22.33;8.35;;;11.40;99.90;;;;;;4872729;29;20092;-77
2023/01/05 09:43:34;;;;;;;22.35;7.13;;;11.40;99.90;;;;;;4862301;29;20117;-78
2023/01/05 09:46:03;;;;;;;24.50;9.82;;;11.40;99.90;;;;;;4855406;29;20432;-78
2023/01/05 09:48:35;;;;;;;23.23;8.88;;;11.40;99.90;;;;;;4838880;29;20030;-78
2023/01/05 09:51:01;;;;;;;22.90;5.75;;;11.40;99.90;;;;;;4855129;29;20094;-78
2023/01/05 09:53:29;;;;;;;17.13;6.82;;;11.30;99.90;;;;;;4864183;29;20026;-78
2023/01/05 09:55:56;;;;;;;25.58;6.45;;;11.40;99.90;;;;;;4875628;29;20093;-78
2023/01/05 09:58:27;;;;;;;15.90;5.68;;;11.50;99.90;;;;;;4860090;29;20030;-78
2023/01/05 10:01:21;;;;;;;14.50;6.45;;;11.50;99.90;;;;;;4844158;29;20037;-76
2023/01/05 10:04:02;;;;;;;29.50;7.65;;;11.70;99.90;;;;;;4860290;29;20050;-76
2023/01/05 10:06:33;;;;;;;31.38;8.43;;;11.90;99.90;;;;;;4840732;29;20077;-76
2023/01/05 10:09:02;;;;;;;23.52;9.02;;;12.50;99.90;;;;;;4857734;29;20034;-76
2023/01/05 10:14:30;;;;;;;22.70;8.73;;;12.40;99.90;;;;;;4856993;29;20033;-78
2023/01/05 10:16:56;;;;;;;34.42;10.55;;;12.80;99.90;;;;;;4875813;29;20105;-78
2023/01/05 10:19:22;;;;;;;21.20;8.15;;;13.00;99.90;;;;;;4859013;29;20061;-76
2023/01/05 10:21:59;;;;;;;24.25;7.63;;;13.10;99.90;;;;;;4859370;29;20561;-78
2023/01/05 10:24:36;;;;;;;20.63;7.15;;;13.20;99.90;;;;;;4859253;29;20087;-78
2023/01/05 10:27:19;;;;;;;20.05;6.85;;;13.50;99.90;;;;;;4856921;29;20034;-78
2023/01/05 10:29:47;;;;;;;25.08;6.68;;;13.70;99.90;;;;;;4840204;29;20030;-78
2023/01/05 10:32:25;;;;;;;20.85;6.40;;;13.60;99.90;;;;;;4840472;29;20034;-78
2023/01/05 10:35:05;;;;;;;28.17;6.90;;;13.30;99.90;;;;;;4855985;29;20041;-78
2023/01/05 10:37:59;;;;;;;17.77;7.45;;;13.30;99.90;;;;;;4864953;29;20399;-78
2023/01/05 10:40:32;;;;;;;23.98;7.50;;;13.20;99.90;;;;;;4875349;29;20040;-78
2023/01/05 10:43:03;;;;;;;13.70;6.80;;;13.30;99.90;;;;;;4870901;29;20052;-78
2023/01/05 10:45:30;;;;;;;18.08;6.95;;;13.20;99.90;;;;;;4840113;29;20038;-78
2023/01/05 10:47:57;;;;;;;20.13;5.60;;;13.10;99.90;;;;;;4857339;29;20025;-78
2023/01/05 10:50:43;;;;;;;23.85;8.20;;;12.80;99.90;;;;;;4840760;29;20036;-78
2023/01/05 10:53:17;;;;;;;25.67;8.15;;;12.60;99.90;;;;;;4840825;29;20029;-78
2023/01/05 10:55:54;;;;;;;23.83;7.72;;;12.60;99.90;;;;;;4840837;29;20049;-78
2023/01/05 10:58:27;;;;;;;29.48;9.20;;;12.50;99.90;;;;;;4840668;29;20038;-78
2023/01/05 11:00:56;;;;;;;28.85;7.25;;;12.30;99.90;;;;;;4856312;29;20042;-78
2023/01/05 11:03:38;;;;;;;21.60;8.18;;;12.30;99.90;;;;;;4863315;29;20033;-78
2023/01/05 11:06:05;;;;;;;17.40;7.07;;;12.30;99.90;;;;;;4874449;29;20138;-78
2023/01/05 11:08:32;;;;;;;25.08;7.03;;;12.20;99.90;;;;;;4859440;29;20034;-78
2023/01/05 11:11:03;;;;;;;23.80;7.32;;;12.20;99.90;;;;;;4875187;29;20029;-79
2023/01/05 11:13:32;;;;;;;34.42;9.60;;;12.20;99.90;;;;;;4850624;29;20038;-77
2023/01/05 11:16:20;;;;;;;29.20;9.27;;;12.10;99.90;;;;;;4868442;29;20498;-78
2023/01/05 11:18:52;;;;;;;25.77;8.52;;;12.10;99.90;;;;;;4874245;29;20044;-77
2023/01/05 11:21:29;;;;;;;29.52;9.30;;;12.00;99.90;;;;;;4876476;29;20116;-78
2023/01/05 11:23:58;;;;;;;24.60;6.70;;;12.10;99.90;;;;;;4874173;29;20033;-78
2023/01/05 11:26:36;;;;;;;24.33;8.48;;;12.20;99.90;;;;;;4874456;29;20030;-78
2023/01/05 11:29:08;;;;;;;28.23;10.13;;;12.30;99.90;;;;;;4839238;29;20022;-78
2023/01/05 11:31:44;;;;;;;16.85;8.82;;;12.30;99.90;;;;;;4855091;29;20034;-78
2023/01/05 11:34:25;;;;;;;26.13;9.00;;;12.30;99.90;;;;;;4855924;29;20038;-78
2023/01/05 11:37:02;;;;;;;22.45;7.25;;;12.30;99.90;;;;;;4854898;29;20038;-78
2023/01/05 11:39:38;;;;;;;22.13;7.80;;;12.40;99.90;;;;;;4828807;29;20030;-77
2023/01/05 11:42:16;;;;;;;19.15;8.73;;;12.30;99.90;;;;;;4856294;29;20118;-78
2023/01/05 11:44:46;;;;;;;18.63;7.18;;;12.30;99.90;;;;;;4855639;29;20369;-78
2023/01/05 11:47:21;;;;;;;24.20;7.90;;;12.60;99.90;;;;;;4839163;29;20026;-78
2023/01/05 11:49:47;;;;;;;19.98;7.13;;;12.70;99.90;;;;;;4857858;29;20029;-78
2023/01/05 11:52:34;;;;;;;18.77;7.95;;;12.80;99.90;;;;;;4847816;29;20041;-78
2023/01/05 11:55:19;;;;;;;22.73;7.53;;;12.80;99.90;;;;;;4865993;29;20034;-78
2023/01/05 11:57:50;;;;;;;25.48;9.32;;;13.00;99.90;;;;;;4839516;29;20033;-77
2023/01/05 12:01:08;;;;;;;18.83;9.13;;;13.30;99.90;;;;;;4841668;29;20090;-78
2023/01/05 12:04:08;;;;;;;15.18;8.07;;;13.70;99.90;;;;;;4827404;29;20153;-78
2023/01/05 12:06:57;;;;;;;13.77;7.22;;;13.80;99.90;;;;;;4860204;29;20038;-78
2023/01/05 12:09:32;;;;;;;14.75;6.78;;;13.70;99.90;;;;;;4861572;29;20026;-77
2023/01/05 12:12:23;;;;;;;26.67;10.88;;;13.40;99.90;;;;;;4842366;29;20100;-77
2023/01/05 12:15:10;;;;;;;19.55;9.80;;;13.10;99.90;;;;;;4856943;29;20060;-78
2023/01/05 12:17:36;;;;;;;21.23;8.63;;;12.80;99.90;;;;;;4854359;29;20040;-77
2023/01/05 12:20:07;;;;;;;14.05;6.63;;;12.40;99.90;;;;;;4842314;29;20407;-77
2023/01/05 12:22:42;;;;;;;19.42;8.35;;;12.30;99.90;;;;;;4866010;29;20037;-78
2023/01/05 12:25:14;;;;;;;22.70;8.38;;;12.20;99.90;;;;;;4856978;29;20040;-78
2023/01/05 12:27:52;;;;;;;31.92;12.65;;;12.10;99.90;;;;;;4874359;29;20037;-77
2023/01/05 12:30:55;;;;;;;19.98;7.63;;;12.10;99.90;;;;;;4842628;29;20026;-78
2023/01/05 12:33:40;;;;;;;25.45;8.32;;;12.10;99.90;;;;;;4857842;29;20054;-77
2023/01/05 12:36:21;;;;;;;22.20;7.97;;;12.10;99.90;;;;;;4857323;29;20501;-78
2023/01/05 12:39:08;;;;;;;25.00;9.30;;;12.20;99.90;;;;;;4873483;29;20103;-78
2023/01/05 12:41:52;;;;;;;18.90;5.93;;;12.30;99.90;;;;;;4857317;29;20040;-78
2023/01/05 12:44:24;;;;;;;19.88;7.03;;;12.40;99.90;;;;;;4873294;29;20094;-78
2023/01/05 12:47:20;;;;;;;21.55;9.52;;;12.50;99.90;;;;;;4873475;29;20045;-78
2023/01/05 12:49:54;;;;;;;20.65;8.35;;;12.30;99.90;;;;;;4857427;29;20105;-78
2023/01/05 12:52:31;;;;;;;14.63;9.95;;;12.30;99.90;;;;;;4846168;29;20102;-77
2023/01/05 12:55:19;;;;;;;29.15;9.10;;;12.20;99.90;;;;;;4854389;29;20124;-77
2023/01/05 12:57:49;;;;;;;17.50;7.07;;;12.20;99.90;;;;;;4860488;29;20030;-78
2023/01/05 13:00:17;;;;;;;22.42;13.57;;;12.20;99.90;;;;;;4853883;29;20045;-78
2023/01/05 13:02:55;;;;;;;30.42;10.40;;;12.30;99.90;;;;;;4839296;29;20026;-78
2023/01/05 13:05:41;;;;;;;27.42;8.55;;;12.40;99.90;;;;;;4856289;29;20085;-78
2023/01/05 13:08:17;;;;;;;21.98;12.48;;;12.40;99.90;;;;;;4857556;29;20029;-78
2023/01/05 13:11:12;;;;;;;16.92;10.05;;;12.50;99.90;;;;;;4865279;29;20033;-78
2023/01/05 13:13:40;;;;;;;21.08;9.63;;;12.50;99.90;;;;;;4836782;29;20041;-77
2023/01/05 13:16:22;;;;;;;13.93;6.63;;;12.60;99.90;;;;;;4858706;29;20505;-77
2023/01/05 13:19:25;;;;;;;20.02;9.40;;;12.60;99.90;;;;;;4843180;29;20022;-78
2023/01/05 13:21:52;;;;;;;27.20;9.50;;;12.50;99.90;;;;;;4844121;29;20129;-79
2023/01/05 13:24:27;;;;;;;28.73;10.77;;;12.60;99.90;;;;;;4860787;29;20063;-78
2023/01/05 13:26:53;;;;;;;25.50;9.68;;;12.40;99.90;;;;;;4860336;29;20040;-78
2023/01/05 13:29:25;;;;;;;22.17;9.50;;;12.40;99.90;;;;;;4860769;29;20097;-78
2023/01/05 13:32:14;;;;;;;23.35;6.85;;;12.40;99.90;;;;;;4858746;29;20479;-78
2023/01/05 13:34:49;;;;;;;22.05;6.53;;;12.50;99.90;;;;;;4857469;29;20524;-78
2023/01/05 13:37:40;;;;;;;28.05;7.55;;;12.60;99.90;;;;;;4857560;29;20045;-78
2023/01/05 13:40:38;;;;;;;30.50;7.60;;;12.80;99.90;;;;;;4864481;29;20064;-78
2023/01/05 13:43:09;;;;;;;16.77;6.10;;;12.90;99.90;;;;;;4862158;29;20034;-78
2023/01/05 13:46:01;;;;;;;24.80;8.25;;;13.00;99.90;;;;;;4863067;29;20034;-78
2023/01/05 13:48:39;;;;;;;16.90;7.35;;;13.10;99.90;;;;;;4879688;29;20040;-78
2023/01/05 13:51:14;;;;;;;16.00;5.55;;;13.10;99.90;;;;;;4858443;29;20423;-78
2023/01/05 13:53:41;;;;;;;13.00;6.70;;;12.90;99.90;;;;;;4846273;29;20057;-78
2023/01/05 13:56:21;;;;;;;20.48;8.25;;;12.80;99.90;;;;;;4846403;29;20022;-78
2023/01/05 13:58:56;;;;;;;12.25;4.82;;;12.90;99.90;;;;;;4860761;29;20040;-78
2023/01/05 14:01:57;;;;;;;18.20;6.25;;;12.80;99.90;;;;;;4859566;29;20034;-78
2023/01/05 14:04:34;;;;;;;25.05;6.15;;;12.80;99.90;;;;;;4829767;29;20041;-78
2023/01/05 14:07:13;;;;;;;27.15;6.97;;;12.70;99.90;;;;;;4859820;29;20130;-78
2023/01/05 14:09:44;;;;;;;13.38;6.45;;;12.60;99.90;;;;;;4859999;29;20059;-78
2023/01/05 14:12:13;;;;;;;11.32;5.22;;;12.50;99.90;;;;;;4860741;29;20045;-78
2023/01/05 14:14:59;;;;;;;14.00;6.88;;;12.40;99.90;;;;;;4844597;29;20097;-78
2023/01/05 14:17:51;;;;;;;15.77;5.65;;;12.30;99.90;;;;;;4860504;29;20038;-78
2023/01/05 14:20:48;;;;;;;18.60;5.43;;;12.30;99.90;;;;;;4860343;29;20033;-78
2023/01/05 14:23:24;;;;;;;15.88;5.13;;;12.10;99.90;;;;;;4860953;29;20046;-78
2023/01/05 14:25:59;;;;;;;23.17;6.00;;;12.10;99.90;;;;;;4843784;29;20038;-78
2023/01/05 14:28:28;;;;;;;19.90;6.68;;;12.10;99.90;;;;;;4862031;29;20501;-78
2023/01/05 14:31:20;;;;;;;18.50;8.32;;;11.90;99.90;;;;;;4843982;29;20052;-78
2023/01/05 14:34:02;;;;;;;17.20;6.10;;;11.80;99.90;;;;;;4860875;29;20041;-78
2023/01/05 14:36:33;;;;;;;31.30;7.10;;;11.80;99.90;;;;;;4861652;29;20034;-78
2023/01/05 14:39:17;;;;;;;12.45;6.20;;;11.70;99.90;;;;;;4860759;29;20033;-78
2023/01/05 14:41:57;;;;;;;12.82;5.90;;;11.60;99.90;;;;;;4846588;29;20034;-78
2023/01/05 14:44:29;;;;;;;17.10;6.82;;;11.70;99.90;;;;;;4863155;29;20034;-78